sensor_id;sensor_type;location;lat;lon;timestamp;P1;durP1;ratioP1;P2;durP2;ratioP2
10603;SDS011;5349;41.554;23.274;2023-01-25T00:02:07;12.97;;;8.60;;
10603;SDS011;5349;41.554;23.274;2023-01-25T00:04:34;13.73;;;9.37;;
10603;SDS011;5349;41.554;23.274;2023-01-25T00:07:02;17.13;;;9.57;;
10603;SDS011;5349;41.554;23.274;2023-01-25T00:09:29;13.53;;;8.27;;
10603;SDS011;5349;41.554;23.274;2023-01-25T00:11:56;12.53;;;8.50;;
10603;SDS011;5349;41.554;23.274;2023-01-25T00:14:23;11.70;;;8.90;;
10603;SDS011;5349;41.554;23.274;2023-01-25T00:16:50;12.87;;;9.03;;
10603;SDS011;5349;41.554;23.274;2023-01-25T00:19:17;14.27;;;9.57;;
10603;SDS011;5349;41.554;23.274;2023-01-25T00:21:44;13.13;;;8.80;;
10603;SDS011;5349;41.554;23.274;2023-01-25T00:24:12;14.00;;;9.73;;
10603;SDS011;5349;41.554;23.274;2023-01-25T00:26:40;14.77;;;8.87;;
10603;SDS011;5349;41.554;23.274;2023-01-25T00:29:10;12.40;;;9.50;;
10603;SDS011;5349;41.554;23.274;2023-01-25T00:31:40;12.10;;;9.13;;
10603;SDS011;5349;41.554;23.274;2023-01-25T00:37:10;15.80;;;9.83;;
10603;SDS011;5349;41.554;23.274;2023-01-25T00:39:40;11.47;;;9.07;;
10603;SDS011;5349;41.554;23.274;2023-01-25T00:42:07;16.40;;;10.97;;
10603;SDS011;5349;41.554;23.274;2023-01-25T00:44:36;11.43;;;9.27;;
10603;SDS011;5349;41.554;23.274;2023-01-25T00:47:02;12.60;;;8.47;;
10603;SDS011;5349;41.554;23.274;2023-01-25T00:49:30;14.67;;;8.90;;
10603;SDS011;5349;41.554;23.274;2023-01-25T00:51:57;14.13;;;8.90;;
10603;SDS011;5349;41.554;23.274;2023-01-25T00:54:24;14.30;;;10.63;;
10603;SDS011;5349;41.554;23.274;2023-01-25T00:56:53;16.23;;;9.63;;
10603;SDS011;5349;41.554;23.274;2023-01-25T00:59:20;13.33;;;8.27;;
10603;SDS011;5349;41.554;23.274;2023-01-25T01:01:48;13.00;;;8.80;;
10603;SDS011;5349;41.554;23.274;2023-01-25T01:04:15;16.53;;;9.40;;
10603;SDS011;5349;41.554;23.274;2023-01-25T01:06:42;19.30;;;10.93;;
10603;SDS011;5349;41.554;23.274;2023-01-25T01:09:10;14.97;;;9.40;;
10603;SDS011;5349;41.554;23.274;2023-01-25T01:11:39;13.80;;;10.53;;
10603;SDS011;5349;41.554;23.274;2023-01-25T01:14:08;11.37;;;8.63;;
10603;SDS011;5349;41.554;23.274;2023-01-25T01:16:36;13.30;;;9.00;;
10603;SDS011;5349;41.554;23.274;2023-01-25T01:19:02;17.10;;;9.77;;
10603;SDS011;5349;41.554;23.274;2023-01-25T01:21:29;13.17;;;9.27;;
10603;SDS011;5349;41.554;23.274;2023-01-25T01:23:56;12.37;;;8.53;;
10603;SDS011;5349;41.554;23.274;2023-01-25T01:26:23;14.60;;;9.13;;
10603;SDS011;5349;41.554;23.274;2023-01-25T01:28:52;14.43;;;8.67;;
10603;SDS011;5349;41.554;23.274;2023-01-25T01:31:22;12.20;;;8.47;;
10603;SDS011;5349;41.554;23.274;2023-01-25T01:33:49;10.60;;;8.00;;
10603;SDS011;5349;41.554;23.274;2023-01-25T01:36:17;13.77;;;9.10;;
10603;SDS011;5349;41.554;23.274;2023-01-25T01:38:45;11.07;;;7.23;;
10603;SDS011;5349;41.554;23.274;2023-01-25T01:41:12;13.43;;;7.70;;
10603;SDS011;5349;41.554;23.274;2023-01-25T01:43:40;14.10;;;8.37;;
10603;SDS011;5349;41.554;23.274;2023-01-25T01:46:08;11.63;;;8.50;;
10603;SDS011;5349;41.554;23.274;2023-01-25T01:48:42;13.37;;;8.23;;
10603;SDS011;5349;41.554;23.274;2023-01-25T01:51:13;14.00;;;8.47;;
10603;SDS011;5349;41.554;23.274;2023-01-25T01:53:44;11.13;;;8.40;;
10603;SDS011;5349;41.554;23.274;2023-01-25T01:56:15;11.97;;;8.00;;
10603;SDS011;5349;41.554;23.274;2023-01-25T01:58:47;10.97;;;8.27;;
10603;SDS011;5349;41.554;23.274;2023-01-25T02:01:15;13.63;;;8.57;;
10603;SDS011;5349;41.554;23.274;2023-01-25T02:03:45;12.63;;;8.97;;
10603;SDS011;5349;41.554;23.274;2023-01-25T02:06:14;11.97;;;8.20;;
10603;SDS011;5349;41.554;23.274;2023-01-25T02:08:47;12.00;;;8.90;;
10603;SDS011;5349;41.554;23.274;2023-01-25T02:11:14;13.97;;;9.43;;
10603;SDS011;5349;41.554;23.274;2023-01-25T02:13:42;13.07;;;9.70;;
10603;SDS011;5349;41.554;23.274;2023-01-25T02:16:11;13.27;;;9.83;;
10603;SDS011;5349;41.554;23.274;2023-01-25T02:18:40;20.07;;;10.80;;
10603;SDS011;5349;41.554;23.274;2023-01-25T02:21:09;14.80;;;9.50;;
10603;SDS011;5349;41.554;23.274;2023-01-25T02:23:38;14.07;;;9.43;;
10603;SDS011;5349;41.554;23.274;2023-01-25T02:26:14;13.13;;;10.10;;
10603;SDS011;5349;41.554;23.274;2023-01-25T02:28:44;15.67;;;9.87;;
10603;SDS011;5349;41.554;23.274;2023-01-25T02:31:14;15.10;;;9.90;;
10603;SDS011;5349;41.554;23.274;2023-01-25T02:33:40;13.80;;;9.53;;
10603;SDS011;5349;41.554;23.274;2023-01-25T02:36:18;14.67;;;9.40;;
10603;SDS011;5349;41.554;23.274;2023-01-25T02:38:53;11.63;;;9.33;;
10603;SDS011;5349;41.554;23.274;2023-01-25T02:41:31;13.17;;;8.83;;
10603;SDS011;5349;41.554;23.274;2023-01-25T02:43:59;13.27;;;8.93;;
10603;SDS011;5349;41.554;23.274;2023-01-25T02:46:30;13.83;;;9.20;;
10603;SDS011;5349;41.554;23.274;2023-01-25T02:48:58;12.60;;;9.40;;
10603;SDS011;5349;41.554;23.274;2023-01-25T02:51:26;12.83;;;9.73;;
10603;SDS011;5349;41.554;23.274;2023-01-25T02:53:55;15.13;;;9.50;;
10603;SDS011;5349;41.554;23.274;2023-01-25T02:56:22;17.37;;;10.57;;
10603;SDS011;5349;41.554;23.274;2023-01-25T02:58:52;13.50;;;9.87;;
10603;SDS011;5349;41.554;23.274;2023-01-25T03:01:22;16.10;;;9.90;;
10603;SDS011;5349;41.554;23.274;2023-01-25T03:03:49;15.10;;;9.53;;
10603;SDS011;5349;41.554;23.274;2023-01-25T03:06:16;12.77;;;9.90;;
10603;SDS011;5349;41.554;23.274;2023-01-25T03:08:43;13.43;;;9.50;;
10603;SDS011;5349;41.554;23.274;2023-01-25T03:11:10;14.67;;;10.23;;
10603;SDS011;5349;41.554;23.274;2023-01-25T03:13:37;13.03;;;9.53;;
10603;SDS011;5349;41.554;23.274;2023-01-25T03:16:06;17.27;;;9.87;;
10603;SDS011;5349;41.554;23.274;2023-01-25T03:18:35;15.23;;;10.17;;
10603;SDS011;5349;41.554;23.274;2023-01-25T03:21:06;14.53;;;10.23;;
10603;SDS011;5349;41.554;23.274;2023-01-25T03:23:34;14.87;;;10.27;;
10603;SDS011;5349;41.554;23.274;2023-01-25T03:26:05;15.13;;;10.50;;
10603;SDS011;5349;41.554;23.274;2023-01-25T03:28:34;17.13;;;11.10;;
10603;SDS011;5349;41.554;23.274;2023-01-25T03:31:02;15.33;;;10.57;;
10603;SDS011;5349;41.554;23.274;2023-01-25T03:33:30;16.43;;;10.70;;
10603;SDS011;5349;41.554;23.274;2023-01-25T03:35:57;15.13;;;10.17;;
10603;SDS011;5349;41.554;23.274;2023-01-25T03:38:24;14.33;;;10.80;;
10603;SDS011;5349;41.554;23.274;2023-01-25T03:40:51;17.77;;;11.17;;
10603;SDS011;5349;41.554;23.274;2023-01-25T03:43:18;14.40;;;11.07;;
10603;SDS011;5349;41.554;23.274;2023-01-25T03:45:50;13.60;;;10.33;;
10603;SDS011;5349;41.554;23.274;2023-01-25T03:48:17;13.27;;;10.67;;
10603;SDS011;5349;41.554;23.274;2023-01-25T03:50:48;16.10;;;10.40;;
10603;SDS011;5349;41.554;23.274;2023-01-25T03:53:22;15.57;;;10.53;;
10603;SDS011;5349;41.554;23.274;2023-01-25T03:55:54;13.57;;;10.80;;
10603;SDS011;5349;41.554;23.274;2023-01-25T03:58:22;16.00;;;10.87;;
10603;SDS011;5349;41.554;23.274;2023-01-25T04:00:49;15.57;;;10.80;;
10603;SDS011;5349;41.554;23.274;2023-01-25T04:03:16;18.97;;;11.60;;
10603;SDS011;5349;41.554;23.274;2023-01-25T04:05:44;18.33;;;10.93;;
10603;SDS011;5349;41.554;23.274;2023-01-25T04:08:12;14.60;;;11.33;;
10603;SDS011;5349;41.554;23.274;2023-01-25T04:10:39;14.23;;;10.80;;
10603;SDS011;5349;41.554;23.274;2023-01-25T04:13:07;15.53;;;9.90;;
10603;SDS011;5349;41.554;23.274;2023-01-25T04:15:34;15.27;;;10.57;;
10603;SDS011;5349;41.554;23.274;2023-01-25T04:18:01;13.03;;;10.23;;
10603;SDS011;5349;41.554;23.274;2023-01-25T04:20:28;18.07;;;12.67;;
10603;SDS011;5349;41.554;23.274;2023-01-25T04:22:55;34.63;;;26.27;;
10603;SDS011;5349;41.554;23.274;2023-01-25T04:25:23;14.90;;;11.70;;
10603;SDS011;5349;41.554;23.274;2023-01-25T04:27:50;20.67;;;13.37;;
10603;SDS011;5349;41.554;23.274;2023-01-25T04:30:17;18.67;;;15.77;;
10603;SDS011;5349;41.554;23.274;2023-01-25T04:32:44;17.53;;;11.77;;
10603;SDS011;5349;41.554;23.274;2023-01-25T04:35:11;17.30;;;11.90;;
10603;SDS011;5349;41.554;23.274;2023-01-25T04:37:38;14.80;;;11.27;;
10603;SDS011;5349;41.554;23.274;2023-01-25T04:40:05;15.87;;;10.90;;
10603;SDS011;5349;41.554;23.274;2023-01-25T04:42:34;15.73;;;10.33;;
10603;SDS011;5349;41.554;23.274;2023-01-25T04:45:01;15.73;;;11.67;;
10603;SDS011;5349;41.554;23.274;2023-01-25T04:47:28;16.63;;;11.10;;
10603;SDS011;5349;41.554;23.274;2023-01-25T04:49:54;21.57;;;14.27;;
10603;SDS011;5349;41.554;23.274;2023-01-25T04:52:21;18.27;;;12.13;;
10603;SDS011;5349;41.554;23.274;2023-01-25T04:54:48;18.43;;;12.17;;
10603;SDS011;5349;41.554;23.274;2023-01-25T04:57:15;20.40;;;14.17;;
10603;SDS011;5349;41.554;23.274;2023-01-25T04:59:43;17.30;;;12.73;;
10603;SDS011;5349;41.554;23.274;2023-01-25T05:02:10;17.03;;;11.57;;
10603;SDS011;5349;41.554;23.274;2023-01-25T05:04:37;19.00;;;12.40;;
10603;SDS011;5349;41.554;23.274;2023-01-25T05:07:04;42.67;;;26.37;;
10603;SDS011;5349;41.554;23.274;2023-01-25T05:09:30;40.50;;;23.97;;
10603;SDS011;5349;41.554;23.274;2023-01-25T05:11:57;28.17;;;17.43;;
10603;SDS011;5349;41.554;23.274;2023-01-25T05:14:24;33.33;;;21.50;;
10603;SDS011;5349;41.554;23.274;2023-01-25T05:16:52;20.80;;;13.73;;
10603;SDS011;5349;41.554;23.274;2023-01-25T05:19:19;17.17;;;12.23;;
10603;SDS011;5349;41.554;23.274;2023-01-25T05:21:46;19.33;;;12.10;;
10603;SDS011;5349;41.554;23.274;2023-01-25T05:24:25;19.87;;;12.57;;
10603;SDS011;5349;41.554;23.274;2023-01-25T05:26:53;24.70;;;14.33;;
10603;SDS011;5349;41.554;23.274;2023-01-25T05:29:25;17.57;;;12.10;;
10603;SDS011;5349;41.554;23.274;2023-01-25T05:31:53;36.37;;;23.27;;
10603;SDS011;5349;41.554;23.274;2023-01-25T05:34:20;18.93;;;12.13;;
10603;SDS011;5349;41.554;23.274;2023-01-25T05:36:47;14.40;;;11.13;;
10603;SDS011;5349;41.554;23.274;2023-01-25T05:39:14;19.97;;;14.23;;
10603;SDS011;5349;41.554;23.274;2023-01-25T05:41:41;19.87;;;12.80;;
10603;SDS011;5349;41.554;23.274;2023-01-25T05:44:07;23.07;;;11.40;;
10603;SDS011;5349;41.554;23.274;2023-01-25T05:46:34;18.90;;;11.43;;
10603;SDS011;5349;41.554;23.274;2023-01-25T05:49:03;19.40;;;11.37;;
10603;SDS011;5349;41.554;23.274;2023-01-25T05:51:30;19.23;;;12.77;;
10603;SDS011;5349;41.554;23.274;2023-01-25T05:53:57;28.57;;;16.77;;
10603;SDS011;5349;41.554;23.274;2023-01-25T05:56:24;22.10;;;13.87;;
10603;SDS011;5349;41.554;23.274;2023-01-25T05:58:54;31.17;;;18.37;;
10603;SDS011;5349;41.554;23.274;2023-01-25T06:01:22;16.20;;;12.27;;
10603;SDS011;5349;41.554;23.274;2023-01-25T06:03:49;23.20;;;13.10;;
10603;SDS011;5349;41.554;23.274;2023-01-25T06:06:17;15.00;;;11.63;;
10603;SDS011;5349;41.554;23.274;2023-01-25T06:08:44;16.00;;;11.63;;
10603;SDS011;5349;41.554;23.274;2023-01-25T06:11:12;22.73;;;14.70;;
10603;SDS011;5349;41.554;23.274;2023-01-25T06:13:40;23.67;;;16.17;;
10603;SDS011;5349;41.554;23.274;2023-01-25T06:16:07;22.07;;;15.63;;
10603;SDS011;5349;41.554;23.274;2023-01-25T06:18:34;23.53;;;15.17;;
10603;SDS011;5349;41.554;23.274;2023-01-25T06:21:02;25.37;;;16.77;;
10603;SDS011;5349;41.554;23.274;2023-01-25T06:23:30;32.40;;;24.20;;
10603;SDS011;5349;41.554;23.274;2023-01-25T06:25:57;27.93;;;18.33;;
10603;SDS011;5349;41.554;23.274;2023-01-25T06:28:24;27.67;;;16.43;;
10603;SDS011;5349;41.554;23.274;2023-01-25T06:30:51;21.23;;;14.60;;
10603;SDS011;5349;41.554;23.274;2023-01-25T06:33:18;22.37;;;15.20;;
10603;SDS011;5349;41.554;23.274;2023-01-25T06:35:45;26.30;;;16.93;;
10603;SDS011;5349;41.554;23.274;2023-01-25T06:38:12;18.60;;;12.23;;
10603;SDS011;5349;41.554;23.274;2023-01-25T06:40:40;19.40;;;13.83;;
10603;SDS011;5349;41.554;23.274;2023-01-25T06:43:07;20.43;;;13.53;;
10603;SDS011;5349;41.554;23.274;2023-01-25T06:45:36;22.30;;;15.77;;
10603;SDS011;5349;41.554;23.274;2023-01-25T06:48:03;20.23;;;14.57;;
10603;SDS011;5349;41.554;23.274;2023-01-25T06:50:30;21.27;;;14.93;;
10603;SDS011;5349;41.554;23.274;2023-01-25T06:52:57;22.43;;;15.03;;
10603;SDS011;5349;41.554;23.274;2023-01-25T06:55:24;22.43;;;15.17;;
10603;SDS011;5349;41.554;23.274;2023-01-25T06:57:52;20.27;;;13.07;;
10603;SDS011;5349;41.554;23.274;2023-01-25T07:00:19;30.33;;;16.90;;
10603;SDS011;5349;41.554;23.274;2023-01-25T07:02:46;18.77;;;12.87;;
10603;SDS011;5349;41.554;23.274;2023-01-25T07:05:13;22.07;;;13.47;;
10603;SDS011;5349;41.554;23.274;2023-01-25T07:07:43;26.20;;;14.53;;
10603;SDS011;5349;41.554;23.274;2023-01-25T07:10:10;22.60;;;14.70;;
10603;SDS011;5349;41.554;23.274;2023-01-25T07:12:37;31.73;;;16.00;;
10603;SDS011;5349;41.554;23.274;2023-01-25T07:15:06;26.87;;;16.40;;
10603;SDS011;5349;41.554;23.274;2023-01-25T07:17:33;26.03;;;16.60;;
10603;SDS011;5349;41.554;23.274;2023-01-25T07:20:00;41.97;;;21.60;;
10603;SDS011;5349;41.554;23.274;2023-01-25T07:22:27;28.53;;;18.20;;
10603;SDS011;5349;41.554;23.274;2023-01-25T07:24:54;26.17;;;15.77;;
10603;SDS011;5349;41.554;23.274;2023-01-25T07:27:23;27.10;;;17.83;;
10603;SDS011;5349;41.554;23.274;2023-01-25T07:29:49;29.67;;;16.33;;
10603;SDS011;5349;41.554;23.274;2023-01-25T07:32:18;36.87;;;17.20;;
10603;SDS011;5349;41.554;23.274;2023-01-25T07:34:45;30.07;;;17.10;;
10603;SDS011;5349;41.554;23.274;2023-01-25T07:37:11;29.50;;;17.03;;
10603;SDS011;5349;41.554;23.274;2023-01-25T07:39:38;32.60;;;19.10;;
10603;SDS011;5349;41.554;23.274;2023-01-25T07:42:12;31.50;;;17.23;;
10603;SDS011;5349;41.554;23.274;2023-01-25T07:44:39;29.50;;;17.57;;
10603;SDS011;5349;41.554;23.274;2023-01-25T07:47:06;34.13;;;19.00;;
10603;SDS011;5349;41.554;23.274;2023-01-25T07:49:34;32.57;;;18.33;;
10603;SDS011;5349;41.554;23.274;2023-01-25T07:52:01;26.40;;;16.77;;
10603;SDS011;5349;41.554;23.274;2023-01-25T07:54:28;30.93;;;16.73;;
10603;SDS011;5349;41.554;23.274;2023-01-25T07:56:54;30.73;;;18.10;;
10603;SDS011;5349;41.554;23.274;2023-01-25T07:59:22;29.57;;;18.30;;
10603;SDS011;5349;41.554;23.274;2023-01-25T08:01:50;35.67;;;17.23;;
10603;SDS011;5349;41.554;23.274;2023-01-25T08:04:17;35.77;;;20.80;;
10603;SDS011;5349;41.554;23.274;2023-01-25T08:06:45;28.70;;;17.87;;
10603;SDS011;5349;41.554;23.274;2023-01-25T08:09:13;29.83;;;18.40;;
10603;SDS011;5349;41.554;23.274;2023-01-25T08:11:44;33.17;;;19.70;;
10603;SDS011;5349;41.554;23.274;2023-01-25T08:14:11;29.10;;;17.97;;
10603;SDS011;5349;41.554;23.274;2023-01-25T08:16:38;35.40;;;19.73;;
10603;SDS011;5349;41.554;23.274;2023-01-25T08:19:05;34.60;;;20.00;;
10603;SDS011;5349;41.554;23.274;2023-01-25T08:21:34;42.83;;;24.00;;
10603;SDS011;5349;41.554;23.274;2023-01-25T08:24:03;35.73;;;22.93;;
10603;SDS011;5349;41.554;23.274;2023-01-25T08:26:32;34.40;;;19.63;;
10603;SDS011;5349;41.554;23.274;2023-01-25T08:29:00;39.40;;;23.60;;
10603;SDS011;5349;41.554;23.274;2023-01-25T08:31:27;30.00;;;18.40;;
10603;SDS011;5349;41.554;23.274;2023-01-25T08:33:55;34.70;;;20.23;;
10603;SDS011;5349;41.554;23.274;2023-01-25T08:36:23;42.93;;;23.87;;
10603;SDS011;5349;41.554;23.274;2023-01-25T08:38:52;25.40;;;16.70;;
10603;SDS011;5349;41.554;23.274;2023-01-25T08:41:22;120.70;;;53.27;;
10603;SDS011;5349;41.554;23.274;2023-01-25T08:43:50;85.70;;;58.33;;
10603;SDS011;5349;41.554;23.274;2023-01-25T08:46:18;120.27;;;64.73;;
10603;SDS011;5349;41.554;23.274;2023-01-25T08:48:45;37.17;;;22.10;;
10603;SDS011;5349;41.554;23.274;2023-01-25T08:51:13;46.63;;;28.03;;
10603;SDS011;5349;41.554;23.274;2023-01-25T08:53:41;24.23;;;15.67;;
10603;SDS011;5349;41.554;23.274;2023-01-25T08:56:09;22.17;;;13.93;;
10603;SDS011;5349;41.554;23.274;2023-01-25T08:58:39;21.37;;;13.93;;
10603;SDS011;5349;41.554;23.274;2023-01-25T09:01:08;24.57;;;14.33;;
10603;SDS011;5349;41.554;23.274;2023-01-25T09:03:37;31.97;;;19.87;;
10603;SDS011;5349;41.554;23.274;2023-01-25T09:06:05;58.90;;;28.77;;
10603;SDS011;5349;41.554;23.274;2023-01-25T09:08:33;47.27;;;26.67;;
10603;SDS011;5349;41.554;23.274;2023-01-25T09:11:00;22.13;;;14.07;;
10603;SDS011;5349;41.554;23.274;2023-01-25T09:13:27;32.10;;;18.87;;
10603;SDS011;5349;41.554;23.274;2023-01-25T09:15:59;46.57;;;23.77;;
10603;SDS011;5349;41.554;23.274;2023-01-25T09:18:26;36.27;;;19.33;;
10603;SDS011;5349;41.554;23.274;2023-01-25T09:20:53;25.90;;;12.90;;
10603;SDS011;5349;41.554;23.274;2023-01-25T09:23:20;19.13;;;11.93;;
10603;SDS011;5349;41.554;23.274;2023-01-25T09:25:48;21.17;;;13.10;;
10603;SDS011;5349;41.554;23.274;2023-01-25T09:28:21;27.83;;;15.30;;
10603;SDS011;5349;41.554;23.274;2023-01-25T09:30:52;19.83;;;12.70;;
10603;SDS011;5349;41.554;23.274;2023-01-25T09:33:21;32.87;;;15.17;;
10603;SDS011;5349;41.554;23.274;2023-01-25T09:35:50;21.27;;;10.90;;
10603;SDS011;5349;41.554;23.274;2023-01-25T09:38:17;19.27;;;10.93;;
10603;SDS011;5349;41.554;23.274;2023-01-25T09:40:44;19.73;;;12.03;;
10603;SDS011;5349;41.554;23.274;2023-01-25T09:43:22;18.40;;;11.63;;
10603;SDS011;5349;41.554;23.274;2023-01-25T09:46:00;20.60;;;12.40;;
10603;SDS011;5349;41.554;23.274;2023-01-25T09:48:38;19.40;;;12.17;;
10603;SDS011;5349;41.554;23.274;2023-01-25T09:51:15;22.50;;;12.80;;
10603;SDS011;5349;41.554;23.274;2023-01-25T09:53:51;21.07;;;14.57;;
10603;SDS011;5349;41.554;23.274;2023-01-25T09:56:22;19.17;;;12.73;;
10603;SDS011;5349;41.554;23.274;2023-01-25T09:58:51;22.90;;;14.73;;
10603;SDS011;5349;41.554;23.274;2023-01-25T10:01:26;20.00;;;12.60;;
10603;SDS011;5349;41.554;23.274;2023-01-25T10:04:03;17.93;;;12.03;;
10603;SDS011;5349;41.554;23.274;2023-01-25T10:06:36;37.33;;;19.20;;
10603;SDS011;5349;41.554;23.274;2023-01-25T10:09:10;21.90;;;14.90;;
10603;SDS011;5349;41.554;23.274;2023-01-25T10:11:42;19.50;;;12.93;;
10603;SDS011;5349;41.554;23.274;2023-01-25T10:14:11;22.30;;;14.53;;
10603;SDS011;5349;41.554;23.274;2023-01-25T10:16:43;25.93;;;17.47;;
10603;SDS011;5349;41.554;23.274;2023-01-25T10:19:24;28.33;;;17.83;;
10603;SDS011;5349;41.554;23.274;2023-01-25T10:22:00;47.77;;;35.33;;
10603;SDS011;5349;41.554;23.274;2023-01-25T10:24:37;47.20;;;33.30;;
10603;SDS011;5349;41.554;23.274;2023-01-25T10:27:23;24.23;;;15.17;;
10603;SDS011;5349;41.554;23.274;2023-01-25T10:29:58;23.77;;;15.70;;
10603;SDS011;5349;41.554;23.274;2023-01-25T10:32:37;28.77;;;19.90;;
10603;SDS011;5349;41.554;23.274;2023-01-25T10:35:17;22.60;;;13.37;;
10603;SDS011;5349;41.554;23.274;2023-01-25T10:37:46;18.87;;;12.23;;
10603;SDS011;5349;41.554;23.274;2023-01-25T10:40:16;17.10;;;11.70;;
10603;SDS011;5349;41.554;23.274;2023-01-25T10:42:47;14.53;;;10.53;;
10603;SDS011;5349;41.554;23.274;2023-01-25T10:45:18;14.03;;;9.23;;
10603;SDS011;5349;41.554;23.274;2023-01-25T10:47:46;19.53;;;11.93;;
10603;SDS011;5349;41.554;23.274;2023-01-25T10:53:27;20.90;;;14.83;;
10603;SDS011;5349;41.554;23.274;2023-01-25T10:56:00;23.47;;;12.30;;
10603;SDS011;5349;41.554;23.274;2023-01-25T10:58:33;17.00;;;10.37;;
10603;SDS011;5349;41.554;23.274;2023-01-25T11:01:02;14.93;;;10.30;;
10603;SDS011;5349;41.554;23.274;2023-01-25T11:03:35;24.37;;;12.53;;
10603;SDS011;5349;41.554;23.274;2023-01-25T11:06:06;19.57;;;11.63;;
10603;SDS011;5349;41.554;23.274;2023-01-25T11:08:34;20.93;;;14.63;;
10603;SDS011;5349;41.554;23.274;2023-01-25T11:13:57;21.63;;;14.53;;
10603;SDS011;5349;41.554;23.274;2023-01-25T11:16:26;20.87;;;12.00;;
10603;SDS011;5349;41.554;23.274;2023-01-25T11:18:56;21.67;;;14.73;;
10603;SDS011;5349;41.554;23.274;2023-01-25T11:21:26;28.40;;;15.83;;
10603;SDS011;5349;41.554;23.274;2023-01-25T11:23:58;29.63;;;17.37;;
10603;SDS011;5349;41.554;23.274;2023-01-25T11:26:26;19.27;;;12.13;;
10603;SDS011;5349;41.554;23.274;2023-01-25T11:29:04;23.43;;;14.33;;
10603;SDS011;5349;41.554;23.274;2023-01-25T11:31:33;17.87;;;11.83;;
10603;SDS011;5349;41.554;23.274;2023-01-25T11:34:00;19.53;;;13.00;;
10603;SDS011;5349;41.554;23.274;2023-01-25T11:36:31;27.37;;;15.17;;
10603;SDS011;5349;41.554;23.274;2023-01-25T11:39:04;28.33;;;16.03;;
10603;SDS011;5349;41.554;23.274;2023-01-25T11:41:47;21.83;;;13.63;;
10603;SDS011;5349;41.554;23.274;2023-01-25T11:44:30;20.57;;;14.20;;
10603;SDS011;5349;41.554;23.274;2023-01-25T11:47:15;22.93;;;14.80;;
10603;SDS011;5349;41.554;23.274;2023-01-25T11:49:54;21.00;;;13.10;;
10603;SDS011;5349;41.554;23.274;2023-01-25T11:52:34;25.17;;;15.20;;
10603;SDS011;5349;41.554;23.274;2023-01-25T11:55:17;19.37;;;14.63;;
10603;SDS011;5349;41.554;23.274;2023-01-25T11:58:01;16.37;;;12.43;;
10603;SDS011;5349;41.554;23.274;2023-01-25T12:00:40;31.77;;;14.03;;
10603;SDS011;5349;41.554;23.274;2023-01-25T12:06:09;19.70;;;13.50;;
10603;SDS011;5349;41.554;23.274;2023-01-25T12:08:52;16.87;;;12.17;;
10603;SDS011;5349;41.554;23.274;2023-01-25T12:11:38;16.83;;;10.63;;
10603;SDS011;5349;41.554;23.274;2023-01-25T12:14:14;19.50;;;11.33;;
10603;SDS011;5349;41.554;23.274;2023-01-25T12:16:51;18.97;;;13.23;;
10603;SDS011;5349;41.554;23.274;2023-01-25T12:19:29;49.77;;;15.77;;
10603;SDS011;5349;41.554;23.274;2023-01-25T12:22:11;27.60;;;12.03;;
10603;SDS011;5349;41.554;23.274;2023-01-25T12:24:53;24.97;;;14.10;;
10603;SDS011;5349;41.554;23.274;2023-01-25T12:27:30;29.00;;;21.83;;
10603;SDS011;5349;41.554;23.274;2023-01-25T12:30:11;27.23;;;18.77;;
10603;SDS011;5349;41.554;23.274;2023-01-25T12:32:43;43.90;;;25.43;;
10603;SDS011;5349;41.554;23.274;2023-01-25T12:35:23;76.73;;;43.73;;
10603;SDS011;5349;41.554;23.274;2023-01-25T12:37:57;86.87;;;46.63;;
10603;SDS011;5349;41.554;23.274;2023-01-25T12:40:34;101.63;;;51.17;;
10603;SDS011;5349;41.554;23.274;2023-01-25T12:43:13;128.13;;;60.63;;
10603;SDS011;5349;41.554;23.274;2023-01-25T12:45:44;44.17;;;26.20;;
10603;SDS011;5349;41.554;23.274;2023-01-25T12:48:15;45.10;;;29.07;;
10603;SDS011;5349;41.554;23.274;2023-01-25T12:50:47;34.47;;;22.57;;
10603;SDS011;5349;41.554;23.274;2023-01-25T12:53:20;33.23;;;18.77;;
10603;SDS011;5349;41.554;23.274;2023-01-25T12:55:52;28.50;;;19.03;;
10603;SDS011;5349;41.554;23.274;2023-01-25T12:58:22;22.87;;;16.33;;
10603;SDS011;5349;41.554;23.274;2023-01-25T13:00:55;37.53;;;22.13;;
10603;SDS011;5349;41.554;23.274;2023-01-25T13:03:33;28.73;;;18.90;;
10603;SDS011;5349;41.554;23.274;2023-01-25T13:06:14;29.00;;;21.57;;
10603;SDS011;5349;41.554;23.274;2023-01-25T13:08:47;21.63;;;14.50;;
10603;SDS011;5349;41.554;23.274;2023-01-25T13:11:22;27.20;;;15.03;;
10603;SDS011;5349;41.554;23.274;2023-01-25T13:13:52;39.90;;;20.70;;
10603;SDS011;5349;41.554;23.274;2023-01-25T13:19:48;27.63;;;16.57;;
10603;SDS011;5349;41.554;23.274;2023-01-25T13:25:22;32.87;;;24.80;;
10603;SDS011;5349;41.554;23.274;2023-01-25T13:27:51;22.60;;;15.53;;
10603;SDS011;5349;41.554;23.274;2023-01-25T13:30:50;19.60;;;14.00;;
10603;SDS011;5349;41.554;23.274;2023-01-25T13:33:30;22.27;;;15.70;;
10603;SDS011;5349;41.554;23.274;2023-01-25T13:36:03;21.30;;;14.40;;
10603;SDS011;5349;41.554;23.274;2023-01-25T13:42:03;22.33;;;14.97;;
10603;SDS011;5349;41.554;23.274;2023-01-25T13:44:53;18.70;;;13.73;;
10603;SDS011;5349;41.554;23.274;2023-01-25T13:47:22;22.03;;;14.30;;
10603;SDS011;5349;41.554;23.274;2023-01-25T13:49:55;22.57;;;15.50;;
10603;SDS011;5349;41.554;23.274;2023-01-25T13:52:28;20.63;;;15.20;;
10603;SDS011;5349;41.554;23.274;2023-01-25T13:54:56;26.83;;;16.70;;
10603;SDS011;5349;41.554;23.274;2023-01-25T13:57:25;28.83;;;16.33;;
10603;SDS011;5349;41.554;23.274;2023-01-25T14:00:02;29.43;;;16.83;;
10603;SDS011;5349;41.554;23.274;2023-01-25T14:02:30;24.43;;;18.93;;
10603;SDS011;5349;41.554;23.274;2023-01-25T14:05:00;30.80;;;16.47;;
10603;SDS011;5349;41.554;23.274;2023-01-25T14:07:28;25.50;;;14.67;;
10603;SDS011;5349;41.554;23.274;2023-01-25T14:09:59;20.53;;;13.97;;
10603;SDS011;5349;41.554;23.274;2023-01-25T14:12:30;16.47;;;12.17;;
10603;SDS011;5349;41.554;23.274;2023-01-25T14:15:19;18.33;;;13.20;;
10603;SDS011;5349;41.554;23.274;2023-01-25T14:18:07;19.37;;;14.07;;
10603;SDS011;5349;41.554;23.274;2023-01-25T14:20:37;23.70;;;15.43;;
10603;SDS011;5349;41.554;23.274;2023-01-25T14:23:04;23.73;;;16.13;;
10603;SDS011;5349;41.554;23.274;2023-01-25T14:25:31;28.83;;;16.63;;
10603;SDS011;5349;41.554;23.274;2023-01-25T14:27:59;23.57;;;16.43;;
10603;SDS011;5349;41.554;23.274;2023-01-25T14:30:28;27.83;;;16.03;;
10603;SDS011;5349;41.554;23.274;2023-01-25T14:32:57;31.80;;;17.30;;
10603;SDS011;5349;41.554;23.274;2023-01-25T14:35:35;24.03;;;16.33;;
10603;SDS011;5349;41.554;23.274;2023-01-25T14:38:21;27.53;;;14.23;;
10603;SDS011;5349;41.554;23.274;2023-01-25T14:40:54;30.87;;;15.27;;
10603;SDS011;5349;41.554;23.274;2023-01-25T14:43:24;26.70;;;14.63;;
10603;SDS011;5349;41.554;23.274;2023-01-25T14:45:53;26.37;;;13.40;;
10603;SDS011;5349;41.554;23.274;2023-01-25T14:48:33;27.47;;;14.17;;
10603;SDS011;5349;41.554;23.274;2023-01-25T14:51:01;25.37;;;16.60;;
10603;SDS011;5349;41.554;23.274;2023-01-25T14:53:30;40.37;;;17.07;;
10603;SDS011;5349;41.554;23.274;2023-01-25T14:55:57;32.03;;;17.70;;
10603;SDS011;5349;41.554;23.274;2023-01-25T14:58:24;37.10;;;21.00;;
10603;SDS011;5349;41.554;23.274;2023-01-25T15:00:54;34.60;;;19.50;;
10603;SDS011;5349;41.554;23.274;2023-01-25T15:04:56;29.47;;;16.57;;